createdAt,value
2019-04-10T00:01:01.942Z,22.97
2019-04-10T00:03:33.640Z,23.87
2019-04-10T00:06:00.638Z,23.43
2019-04-10T00:08:29.092Z,23.53
2019-04-10T00:10:58.553Z,23.40
2019-04-10T00:13:27.646Z,26.53
2019-04-10T00:15:57.006Z,25.43
2019-04-10T00:18:26.686Z,25.70
2019-04-10T00:20:55.114Z,27.00
2019-04-10T00:23:24.755Z,22.70
2019-04-10T00:25:53.478Z,24.93
2019-04-10T00:28:21.910Z,26.40
2019-04-10T00:30:51.360Z,24.67
2019-04-10T00:33:20.782Z,25.97
2019-04-10T00:35:49.891Z,23.47
2019-04-10T00:38:19.768Z,22.80
2019-04-10T00:40:48.351Z,22.67
2019-04-10T00:43:17.073Z,27.27
2019-04-10T00:45:46.023Z,20.20
2019-04-10T00:48:15.499Z,23.97
2019-04-10T00:50:44.598Z,23.23
2019-04-10T00:53:13.280Z,23.53
2019-04-10T00:55:41.958Z,25.13
2019-04-10T00:58:10.560Z,25.17
2019-04-10T01:00:39.254Z,26.33
2019-04-10T01:03:07.868Z,25.63
2019-04-10T01:05:37.280Z,26.30
2019-04-10T01:08:06.576Z,26.97
2019-04-10T01:10:35.408Z,28.83
2019-04-10T01:13:04.818Z,26.60
2019-04-10T01:15:34.454Z,27.50
2019-04-10T01:18:02.979Z,27.57
2019-04-10T01:20:31.405Z,26.87
2019-04-10T01:22:59.847Z,29.33
2019-04-10T01:25:28.383Z,28.60
2019-04-10T01:27:56.932Z,28.20
2019-04-10T01:30:26.366Z,28.57
2019-04-10T01:32:54.963Z,28.63
2019-04-10T01:35:24.473Z,31.27
2019-04-10T01:37:57.866Z,28.43
2019-04-10T01:40:23.513Z,29.43
2019-04-10T01:43:02.550Z,35.27
2019-04-10T01:45:22.106Z,28.37
2019-04-10T01:47:51.202Z,31.00
2019-04-10T01:50:20.162Z,34.30
2019-04-10T01:52:49.132Z,34.53
2019-04-10T01:55:25.272Z,34.43
2019-04-10T01:57:48.879Z,35.87
2019-04-10T02:00:19.550Z,40.43
2019-04-10T02:02:54.234Z,32.83
2019-04-10T02:05:22.976Z,24.70
2019-04-10T02:08:02.360Z,26.60
2019-04-10T02:10:21.677Z,24.20
2019-04-10T02:12:50.841Z,26.37
2019-04-10T02:15:19.833Z,26.73
2019-04-10T02:17:48.728Z,30.30
2019-04-10T02:20:17.361Z,28.90
2019-04-10T02:22:45.908Z,29.33
2019-04-10T02:25:15.702Z,28.47
2019-04-10T02:27:44.697Z,33.40
2019-04-10T02:30:16.375Z,36.27
2019-04-10T02:32:47.728Z,36.83
2019-04-10T02:35:17.163Z,35.77
2019-04-10T02:37:44.631Z,33.03
2019-04-10T02:40:14.919Z,32.93
2019-04-10T02:42:45.023Z,34.33
2019-04-10T02:45:14.783Z,39.17
2019-04-10T02:47:45.000Z,40.70
2019-04-10T02:50:14.328Z,39.77
2019-04-10T02:52:43.272Z,39.33
2019-04-10T02:55:12.220Z,43.67
2019-04-10T02:57:41.363Z,40.60
2019-04-10T03:00:12.759Z,44.27
2019-04-10T03:02:41.568Z,37.73
2019-04-10T03:05:10.913Z,41.63
2019-04-10T03:07:40.303Z,43.80
2019-04-10T03:10:20.475Z,43.63
2019-04-10T03:12:41.080Z,41.97
2019-04-10T03:15:12.350Z,45.70
2019-04-10T03:17:40.522Z,37.47
2019-04-10T03:20:10.009Z,41.07
2019-04-10T03:22:38.606Z,44.23
2019-04-10T03:25:08.763Z,41.70
2019-04-10T03:27:38.549Z,39.87
2019-04-10T03:30:10.133Z,39.13
2019-04-10T03:32:48.082Z,37.67
2019-04-10T03:35:23.325Z,34.73
2019-04-10T03:37:52.835Z,37.33
2019-04-10T03:40:21.685Z,35.83
2019-04-10T03:42:50.375Z,36.63
2019-04-10T03:45:20.123Z,34.20
2019-04-10T03:47:49.423Z,35.03
2019-04-10T03:50:18.412Z,38.77
2019-04-10T03:52:47.571Z,38.83
2019-04-10T03:55:16.727Z,37.07
2019-04-10T03:57:45.267Z,36.70
2019-04-10T04:00:14.188Z,36.73
2019-04-10T04:02:42.594Z,36.27
2019-04-10T04:05:11.274Z,34.77
2019-04-10T04:07:40.982Z,34.83
2019-04-10T04:10:10.857Z,33.33
2019-04-10T04:12:39.467Z,37.53
2019-04-10T04:15:09.403Z,32.30
2019-04-10T04:17:38.059Z,34.67
2019-04-10T04:20:06.623Z,33.97
2019-04-10T04:22:35.428Z,35.37
2019-04-10T04:25:04.666Z,31.40
2019-04-10T04:27:33.579Z,34.13
2019-04-10T04:30:02.143Z,30.90
2019-04-10T04:32:31.489Z,29.63
2019-04-10T04:35:00.133Z,25.97
2019-04-10T04:37:28.746Z,25.30
2019-04-10T04:39:58.283Z,25.40
2019-04-10T04:42:26.874Z,24.27
2019-04-10T04:44:56.233Z,25.97
2019-04-10T04:47:24.916Z,24.17
2019-04-10T04:49:54.330Z,26.90
2019-04-10T04:52:23.784Z,24.60
2019-04-10T04:54:53.264Z,24.53
2019-04-10T04:57:22.653Z,25.33
2019-04-10T04:59:52.598Z,24.57
2019-04-10T05:02:21.975Z,24.83
2019-04-10T05:04:51.448Z,24.83
2019-04-10T05:07:20.341Z,26.80
2019-04-10T05:09:50.337Z,24.87
2019-04-10T05:12:20.090Z,26.93
2019-04-10T05:14:49.015Z,29.70
2019-04-10T05:17:18.327Z,30.77
2019-04-10T05:19:47.266Z,26.73
2019-04-10T05:22:16.633Z,30.50
2019-04-10T05:24:45.185Z,28.07
2019-04-10T05:27:14.128Z,26.20
2019-04-10T05:29:43.035Z,26.00
2019-04-10T05:32:11.598Z,25.80
2019-04-10T05:34:40.425Z,28.07
2019-04-10T05:37:09.398Z,26.73
2019-04-10T05:39:43.129Z,25.53
2019-04-10T05:42:08.570Z,25.90
2019-04-10T05:44:38.165Z,25.63
2019-04-10T05:47:07.405Z,29.20
2019-04-10T05:49:35.990Z,27.97
2019-04-10T05:52:04.615Z,27.70
2019-04-10T05:54:33.282Z,27.10
2019-04-10T05:57:01.945Z,29.43
2019-04-10T05:59:30.407Z,28.10
2019-04-10T06:01:59.015Z,28.53
2019-04-10T06:04:27.524Z,28.83
2019-04-10T06:06:56.831Z,28.33
2019-04-10T06:09:26.801Z,29.03
2019-04-10T06:11:55.386Z,29.47
2019-04-10T06:14:24.274Z,27.13
2019-04-10T06:16:53.151Z,28.53
2019-04-10T06:19:22.018Z,29.03
2019-04-10T06:21:50.650Z,29.47
2019-04-10T06:24:20.293Z,27.63
2019-04-10T06:26:49.978Z,25.97
2019-04-10T06:29:19.182Z,27.47
2019-04-10T06:31:49.223Z,25.17
2019-04-10T06:34:18.797Z,28.00
2019-04-10T06:36:47.481Z,27.27
2019-04-10T06:39:16.479Z,29.93
2019-04-10T06:41:45.131Z,29.70
2019-04-10T06:44:14.065Z,30.40
2019-04-10T06:46:42.586Z,31.63
2019-04-10T06:49:12.188Z,35.73
2019-04-10T06:51:41.182Z,41.53
2019-04-10T06:54:11.438Z,45.23
2019-04-10T06:56:40.956Z,44.67
2019-04-10T06:59:09.562Z,47.03
2019-04-10T07:01:44.327Z,46.30
2019-04-10T07:04:09.818Z,42.37
2019-04-10T07:06:49.989Z,36.30
2019-04-10T07:09:11.372Z,38.60
2019-04-10T07:11:40.229Z,38.90
2019-04-10T07:14:12.573Z,40.87
2019-04-10T07:16:40.012Z,40.93
2019-04-10T07:19:11.508Z,46.90
2019-04-10T07:21:39.262Z,45.67
2019-04-10T07:24:10.592Z,55.17
2019-04-10T07:26:42.001Z,59.60
2019-04-10T07:29:08.933Z,62.33
2019-04-10T07:31:39.424Z,65.10
2019-04-10T07:34:08.845Z,67.90
2019-04-10T07:36:41.543Z,49.30
2019-04-10T07:39:08.062Z,47.73
2019-04-10T07:41:37.647Z,47.80
2019-04-10T07:44:06.423Z,46.47
2019-04-10T07:46:35.102Z,46.87
2019-04-10T07:49:03.535Z,38.77
2019-04-10T07:51:32.029Z,33.90
2019-04-10T07:54:00.564Z,32.73
2019-04-10T07:56:29.117Z,32.33
2019-04-10T07:58:57.734Z,35.10
2019-04-10T08:01:26.409Z,31.87
2019-04-10T08:03:55.612Z,31.53
2019-04-10T08:06:25.565Z,33.37
2019-04-10T08:08:55.394Z,30.13
2019-04-10T08:11:24.065Z,27.33
2019-04-10T08:13:53.281Z,33.47
2019-04-10T08:16:23.187Z,27.07
2019-04-10T08:18:52.166Z,26.87
2019-04-10T08:21:21.776Z,28.80
2019-04-10T08:23:51.581Z,31.37
2019-04-10T08:26:21.388Z,28.63
2019-04-10T08:28:50.295Z,28.00
2019-04-10T08:31:19.107Z,27.33
2019-04-10T08:33:47.862Z,24.77
2019-04-10T08:36:16.414Z,26.33
2019-04-10T08:38:44.846Z,28.83
2019-04-10T08:41:13.275Z,27.17
2019-04-10T08:43:41.854Z,28.30
2019-04-10T08:46:10.874Z,29.20
2019-04-10T08:48:39.458Z,26.87
2019-04-10T08:51:08.685Z,25.60
2019-04-10T08:53:38.301Z,24.83
2019-04-10T08:56:07.075Z,26.23
2019-04-10T08:58:35.611Z,27.23
2019-04-10T09:01:05.025Z,24.20
2019-04-10T09:03:34.958Z,27.17
2019-04-10T09:06:03.876Z,25.13
2019-04-10T09:08:32.938Z,23.23
2019-04-10T09:11:01.389Z,26.93
2019-04-10T09:13:32.589Z,25.40
2019-04-10T09:16:02.407Z,24.63
2019-04-10T09:18:31.600Z,26.57
2019-04-10T09:21:00.556Z,25.83
2019-04-10T09:23:39.054Z,26.57
2019-04-10T09:25:59.662Z,25.80
2019-04-10T09:28:28.516Z,25.07
2019-04-10T09:30:57.475Z,23.20
2019-04-10T09:33:28.240Z,24.50
2019-04-10T09:35:57.157Z,24.50
2019-04-10T09:38:26.454Z,25.40
2019-04-10T09:40:55.261Z,25.03
2019-04-10T09:43:23.931Z,26.77
2019-04-10T09:45:53.632Z,25.93
2019-04-10T09:48:22.296Z,23.83
2019-04-10T09:50:50.749Z,24.33
2019-04-10T09:53:19.190Z,26.43
2019-04-10T09:55:49.006Z,25.33
2019-04-10T09:58:17.654Z,23.50
2019-04-10T10:00:46.546Z,24.63
2019-04-10T10:03:15.528Z,23.80
2019-04-10T10:05:44.639Z,23.10
2019-04-10T10:08:14.209Z,23.23
2019-04-10T10:10:44.996Z,26.77
2019-04-10T10:13:15.483Z,22.67
2019-04-10T10:15:45.245Z,23.17
2019-04-10T10:18:14.331Z,21.70
2019-04-10T10:20:43.985Z,25.17
2019-04-10T10:23:13.752Z,23.07
2019-04-10T10:25:43.678Z,21.23
2019-04-10T10:28:13.212Z,22.03
2019-04-10T10:30:41.863Z,24.33
2019-04-10T10:33:10.431Z,23.07
2019-04-10T10:35:39.154Z,23.53
2019-04-10T10:38:08.298Z,24.07
2019-04-10T10:40:36.976Z,23.73
2019-04-10T10:43:05.498Z,24.13
2019-04-10T10:45:34.682Z,25.43
2019-04-10T10:48:03.409Z,26.30
2019-04-10T10:50:33.084Z,24.17
2019-04-10T10:53:01.601Z,21.60
2019-04-10T10:55:30.039Z,21.93
2019-04-10T10:57:59.667Z,20.47
2019-04-10T11:00:29.313Z,21.77
2019-04-10T11:02:58.137Z,18.37
2019-04-10T11:05:27.356Z,20.43
2019-04-10T11:07:55.937Z,18.23
2019-04-10T11:10:27.520Z,20.93
2019-04-10T11:12:55.343Z,21.83
2019-04-10T11:15:23.917Z,23.10
2019-04-10T11:17:53.794Z,19.67
2019-04-10T11:20:24.026Z,20.30
2019-04-10T11:22:53.692Z,18.50
2019-04-10T11:25:22.246Z,19.03
2019-04-10T11:27:51.566Z,18.40
2019-04-10T11:30:20.618Z,18.73
2019-04-10T11:32:50.611Z,18.07
2019-04-10T11:35:19.453Z,16.97
2019-04-10T11:37:51.346Z,17.10
2019-04-10T11:40:18.219Z,17.03
2019-04-10T11:42:47.098Z,17.03
2019-04-10T11:45:18.574Z,16.10
2019-04-10T11:47:47.481Z,15.37
2019-04-10T11:50:18.435Z,15.53
2019-04-10T11:52:52.527Z,14.43
2019-04-10T11:55:20.985Z,14.70
2019-04-10T11:57:49.663Z,12.23
2019-04-10T12:00:23.143Z,12.60
2019-04-10T12:02:52.763Z,12.53
2019-04-10T12:05:22.075Z,13.33
2019-04-10T12:08:18.153Z,12.47
2019-04-10T12:12:51.454Z,11.93
2019-04-10T12:15:20.834Z,12.20
2019-04-10T12:17:49.829Z,11.63
2019-04-10T12:20:18.769Z,10.77
2019-04-10T12:22:48.301Z,12.17
2019-04-10T12:25:17.123Z,11.60
2019-04-10T12:27:45.930Z,12.57
2019-04-10T12:30:15.271Z,13.63
2019-04-10T12:32:45.984Z,12.90
2019-04-10T12:35:15.162Z,11.87
2019-04-10T12:37:43.780Z,13.10
2019-04-10T12:40:12.383Z,12.93
2019-04-10T12:42:40.939Z,16.03
2019-04-10T12:45:09.857Z,16.27
2019-04-10T12:47:38.282Z,15.00
2019-04-10T12:50:08.189Z,13.63
2019-04-10T12:52:36.745Z,13.80
2019-04-10T12:55:08.652Z,14.50
2019-04-10T12:57:37.457Z,13.87
2019-04-10T13:00:11.854Z,15.53
2019-04-10T13:02:40.765Z,15.87
2019-04-10T13:05:11.317Z,14.93
2019-04-10T13:07:40.017Z,15.37
2019-04-10T13:10:08.839Z,15.60
2019-04-10T13:12:37.685Z,16.80
2019-04-10T13:15:10.944Z,17.67
2019-04-10T13:17:40.654Z,20.63
2019-04-10T13:20:11.745Z,21.00
2019-04-10T13:22:40.263Z,21.87
2019-04-10T13:25:10.156Z,21.77
2019-04-10T13:27:39.234Z,24.23
2019-04-10T13:30:12.655Z,24.33
2019-04-10T13:32:40.490Z,24.37
2019-04-10T13:35:10.342Z,26.40
2019-04-10T13:37:39.062Z,24.67
2019-04-10T13:40:07.942Z,25.43
2019-04-10T13:42:37.188Z,24.30
2019-04-10T13:45:07.542Z,23.53
2019-04-10T13:47:36.050Z,25.20
2019-04-10T13:50:07.163Z,26.13
2019-04-10T13:52:38.419Z,28.93
2019-04-10T13:55:08.891Z,26.47
2019-04-10T13:57:39.207Z,25.43
2019-04-10T14:00:11.291Z,28.33
2019-04-10T14:02:40.048Z,31.67
2019-04-10T14:05:11.651Z,34.57
2019-04-10T14:07:40.404Z,34.10
2019-04-10T14:10:10.580Z,33.57
2019-04-10T14:12:39.367Z,34.73
2019-04-10T14:15:09.817Z,37.50
2019-04-10T14:17:39.308Z,36.57
2019-04-10T14:20:08.490Z,38.13
2019-04-10T14:22:38.640Z,40.17
2019-04-10T14:25:09.617Z,37.47
2019-04-10T14:27:38.637Z,38.37
2019-04-10T14:30:11.195Z,39.17
2019-04-10T14:32:40.046Z,38.30
2019-04-10T14:35:10.107Z,37.63
2019-04-10T14:37:38.937Z,39.07
2019-04-10T14:40:10.084Z,37.33
2019-04-10T14:42:38.682Z,35.60
2019-04-10T14:45:08.889Z,37.53
2019-04-10T14:47:37.578Z,35.33
2019-04-10T14:50:07.389Z,33.83
2019-04-10T14:52:37.087Z,34.93
2019-04-10T14:55:06.502Z,32.67
2019-04-10T14:57:35.522Z,33.47
2019-04-10T15:00:10.692Z,31.40
2019-04-10T15:02:39.757Z,32.53
2019-04-10T15:05:10.074Z,34.23
2019-04-10T15:07:39.397Z,31.20
2019-04-10T15:10:09.626Z,31.30
2019-04-10T15:12:38.055Z,30.47
2019-04-10T15:15:06.498Z,31.00
2019-04-10T15:17:35.035Z,32.60
2019-04-10T15:20:04.906Z,33.47
2019-04-10T15:22:33.836Z,34.10
2019-04-10T15:25:02.489Z,35.17
2019-04-10T15:27:30.988Z,38.57
2019-04-10T15:29:59.423Z,35.73
2019-04-10T15:32:27.966Z,40.47
2019-04-10T15:34:56.406Z,39.57
2019-04-10T15:37:24.986Z,43.30
2019-04-10T15:39:54.018Z,43.50
2019-04-10T15:42:23.548Z,46.63
2019-04-10T15:44:52.440Z,44.97
2019-04-10T15:47:23.171Z,44.20
2019-04-10T15:49:51.651Z,48.63
2019-04-10T15:52:20.271Z,50.83
2019-04-10T15:54:49.939Z,53.20
2019-04-10T15:57:18.819Z,50.97
2019-04-10T15:59:48.264Z,49.93
2019-04-10T16:02:17.117Z,54.23
2019-04-10T16:04:45.625Z,53.50
2019-04-10T16:07:14.526Z,53.90
2019-04-10T16:09:49.779Z,54.80
2019-04-10T16:12:18.702Z,59.97
2019-04-10T16:14:48.495Z,52.50
2019-04-10T16:17:34.083Z,53.50
2019-04-10T16:20:19.705Z,52.80
2019-04-10T16:22:50.817Z,58.07
2019-04-10T16:25:25.513Z,53.40
2019-04-10T16:27:55.539Z,52.37
2019-04-10T16:30:26.243Z,55.13
2019-04-10T16:32:54.983Z,54.13
2019-04-10T16:35:23.446Z,54.50
2019-04-10T16:37:51.972Z,54.87
2019-04-10T16:40:20.673Z,52.70
2019-04-10T16:42:50.767Z,54.40
2019-04-10T16:45:19.357Z,54.73
2019-04-10T16:47:47.939Z,55.67
2019-04-10T16:50:17.484Z,52.97
2019-04-10T16:52:45.982Z,52.47
2019-04-10T16:55:15.860Z,55.30
2019-04-10T16:57:45.332Z,55.37
2019-04-10T17:00:16.430Z,56.80
2019-04-10T17:02:44.618Z,53.33
2019-04-10T17:05:14.494Z,58.23
2019-04-10T17:07:43.289Z,55.33
2019-04-10T17:10:19.379Z,53.23
2019-04-10T17:12:44.254Z,57.53
2019-04-10T17:15:13.710Z,55.73
2019-04-10T17:17:42.312Z,57.17
2019-04-10T17:20:11.913Z,57.83
2019-04-10T17:22:45.313Z,54.93
2019-04-10T17:25:11.730Z,57.60
2019-04-10T17:27:40.665Z,56.10
2019-04-10T17:30:10.146Z,61.13
2019-04-10T17:32:40.576Z,57.47
2019-04-10T17:35:11.596Z,58.73
2019-04-10T17:37:40.313Z,57.70
2019-04-10T17:40:26.359Z,57.60
2019-04-10T17:42:42.219Z,58.40
2019-04-10T17:45:12.090Z,56.63
2019-04-10T17:47:40.990Z,57.30
2019-04-10T17:50:11.859Z,57.37
2019-04-10T17:52:40.879Z,57.67
2019-04-10T17:55:09.750Z,61.63
2019-04-10T17:57:41.315Z,56.10
2019-04-10T18:00:18.740Z,57.83
2019-04-10T18:02:48.534Z,54.77
2019-04-10T18:05:17.984Z,58.50
2019-04-10T18:07:46.672Z,58.33
2019-04-10T18:10:16.126Z,60.43
2019-04-10T18:12:44.562Z,61.93
2019-04-10T18:15:13.525Z,61.23
2019-04-10T18:17:43.003Z,61.87
2019-04-10T18:20:11.589Z,62.90
2019-04-10T18:22:40.063Z,63.93
2019-04-10T18:25:09.636Z,65.27
2019-04-10T18:27:38.663Z,65.20
2019-04-10T18:30:07.897Z,66.43
2019-04-10T18:32:36.427Z,68.93
2019-04-10T18:35:06.803Z,71.93
2019-04-10T18:37:35.414Z,67.70
2019-04-10T18:40:05.356Z,67.87
2019-04-10T18:42:33.882Z,72.30
2019-04-10T18:45:02.322Z,75.20
2019-04-10T18:47:32.310Z,72.13
2019-04-10T18:50:01.531Z,71.63
2019-04-10T18:52:31.713Z,75.30
2019-04-10T18:55:00.488Z,76.10
2019-04-10T18:57:30.498Z,74.30
2019-04-10T19:00:06.300Z,74.23
2019-04-10T19:02:43.198Z,76.70
2019-04-10T19:05:16.054Z,80.40
2019-04-10T19:07:44.613Z,78.00
2019-04-10T19:10:14.276Z,80.73
2019-04-10T19:12:43.291Z,77.70
2019-04-10T19:15:12.752Z,79.50
2019-04-10T19:17:41.943Z,80.27
2019-04-10T19:20:11.089Z,80.73
2019-04-10T19:22:40.145Z,76.67
2019-04-10T19:25:08.890Z,82.33
2019-04-10T19:27:37.523Z,79.70
2019-04-10T19:30:09.411Z,84.60
2019-04-10T19:32:38.428Z,83.00
2019-04-10T19:35:07.804Z,83.20
2019-04-10T19:37:36.752Z,84.93
2019-04-10T19:40:09.089Z,83.77
2019-04-10T19:42:37.946Z,83.83
2019-04-10T19:45:07.857Z,81.23
2019-04-10T19:47:36.773Z,91.47
2019-04-10T19:50:06.395Z,88.17
2019-04-10T19:52:34.825Z,90.27
2019-04-10T19:55:03.374Z,90.50
2019-04-10T19:57:31.807Z,90.80
2019-04-10T20:00:00.562Z,91.43
2019-04-10T20:02:29.073Z,95.55
2019-04-10T20:04:57.673Z,88.83
2019-04-10T20:07:27.102Z,87.90
2019-04-10T20:09:55.594Z,88.17
2019-04-10T20:12:24.571Z,86.50
2019-04-10T20:14:53.372Z,87.43
2019-04-10T20:17:22.227Z,87.67
2019-04-10T20:19:53.822Z,91.50
2019-04-10T20:22:21.161Z,90.00
2019-04-10T20:24:50.753Z,85.93
2019-04-10T20:27:20.209Z,89.63
2019-04-10T20:29:48.782Z,88.20
2019-04-10T20:32:17.653Z,88.20
2019-04-10T20:34:47.457Z,94.40
2019-04-10T20:37:16.011Z,92.27
2019-04-10T20:39:45.433Z,92.27
2019-04-10T20:42:14.107Z,91.13
2019-04-10T20:44:43.063Z,88.30
2019-04-10T20:47:11.527Z,91.67
2019-04-10T20:49:40.569Z,88.77
2019-04-10T20:52:11.507Z,90.97
2019-04-10T20:54:39.263Z,93.53
2019-04-10T20:57:08.110Z,84.53
2019-04-10T20:59:37.080Z,85.73
2019-04-10T21:02:06.253Z,84.07
2019-04-10T21:04:34.879Z,84.37
2019-04-10T21:07:03.317Z,85.73
2019-04-10T21:09:32.066Z,76.87
2019-04-10T21:12:06.754Z,74.57
2019-04-10T21:14:31.789Z,78.27
2019-04-10T21:17:00.483Z,72.73
2019-04-10T21:19:29.083Z,73.13
2019-04-10T21:21:57.609Z,72.07
2019-04-10T21:24:27.349Z,79.17
2019-04-10T21:26:56.913Z,77.83
2019-04-10T21:29:46.456Z,76.97
2019-04-10T21:32:34.481Z,77.37
2019-04-10T21:35:04.862Z,83.80
2019-04-10T21:37:33.294Z,77.43
2019-04-10T21:40:02.714Z,78.60
2019-04-10T21:42:31.608Z,78.40
2019-04-10T21:45:00.082Z,76.07
2019-04-10T21:47:28.538Z,78.63
2019-04-10T21:49:56.978Z,76.73
2019-04-10T21:52:25.489Z,77.03
2019-04-10T21:54:57.154Z,76.73
2019-04-10T21:57:24.358Z,76.60
2019-04-10T21:59:53.815Z,76.60
2019-04-10T22:02:23.809Z,80.43
2019-04-10T22:04:52.438Z,82.17
2019-04-10T22:07:23.698Z,75.23
2019-04-10T22:09:54.968Z,73.70
2019-04-10T22:12:31.192Z,72.30
2019-04-10T22:14:54.543Z,71.77
2019-04-10T22:17:23.081Z,71.30
2019-04-10T22:19:51.508Z,68.13
2019-04-10T22:22:20.300Z,71.33
2019-04-10T22:24:48.959Z,68.23
2019-04-10T22:27:17.386Z,69.70
2019-04-10T22:29:46.785Z,75.60
2019-04-10T22:32:16.405Z,70.60
2019-04-10T22:34:44.949Z,68.43
2019-04-10T22:37:15.491Z,69.80
2019-04-10T22:39:43.768Z,67.37
2019-04-10T22:42:13.066Z,67.83
2019-04-10T22:44:45.223Z,69.73
2019-04-10T22:47:11.682Z,70.40
2019-04-10T22:49:40.283Z,67.73
2019-04-10T22:52:08.903Z,66.83
2019-04-10T22:54:38.742Z,68.87
2019-04-10T22:57:07.389Z,67.97
2019-04-10T22:59:35.819Z,64.60
2019-04-10T23:02:08.844Z,66.63
2019-04-10T23:04:34.942Z,64.13
2019-04-10T23:07:03.943Z,63.83
2019-04-10T23:09:32.695Z,62.50
2019-04-10T23:12:02.264Z,63.07
2019-04-10T23:14:31.136Z,62.60
2019-04-10T23:17:00.250Z,63.00
2019-04-10T23:19:29.932Z,62.80
2019-04-10T23:21:58.570Z,65.93
2019-04-10T23:24:27.713Z,64.33
2019-04-10T23:26:57.504Z,65.50
2019-04-10T23:29:26.382Z,60.53
2019-04-10T23:31:56.152Z,65.67
2019-04-10T23:34:25.099Z,64.50
2019-04-10T23:36:54.087Z,66.77
2019-04-10T23:39:23.893Z,65.27
2019-04-10T23:41:53.506Z,65.80
2019-04-10T23:44:21.979Z,66.13
2019-04-10T23:46:51.607Z,65.70
2019-04-10T23:49:21.420Z,65.57
2019-04-10T23:51:50.067Z,64.67
2019-04-10T23:54:19.370Z,62.63
2019-04-10T23:56:49.350Z,62.73
2019-04-10T23:59:18.301Z,63.87
